sensor_id;sensor_type;location;lat;lon;timestamp;pressure;altitude;pressure_sealevel;temperature;humidity
50632;BME280;49583;45.590;-122.498;2023-02-13T00:02:02;101634.01;;;13.54;53.40
50632;BME280;49583;45.590;-122.498;2023-02-13T00:04:18;101627.31;;;13.51;53.28
50632;BME280;49583;45.590;-122.498;2023-02-13T00:06:32;101626.77;;;13.48;53.29
50632;BME280;49583;45.590;-122.498;2023-02-13T00:08:46;101627.08;;;13.47;53.35
50632;BME280;49583;45.590;-122.498;2023-02-13T00:10:59;101637.92;;;13.51;53.60
50632;BME280;49583;45.590;-122.498;2023-02-13T00:13:13;101639.77;;;13.55;53.56
50632;BME280;49583;45.590;-122.498;2023-02-13T00:15:27;101646.95;;;13.59;53.64
50632;BME280;49583;45.590;-122.498;2023-02-13T00:17:40;101650.72;;;13.63;53.63
50632;BME280;49583;45.590;-122.498;2023-02-13T00:19:54;101644.79;;;13.65;53.37
50632;BME280;49583;45.590;-122.498;2023-02-13T00:22:08;101643.64;;;13.66;53.40
50632;BME280;49583;45.590;-122.498;2023-02-13T00:24:21;101645.13;;;13.66;53.44
50632;BME280;49583;45.590;-122.498;2023-02-13T00:26:34;101648.67;;;13.66;53.50
50632;BME280;49583;45.590;-122.498;2023-02-13T00:28:49;101647.92;;;13.67;53.55
50632;BME280;49583;45.590;-122.498;2023-02-13T00:31:10;101647.01;;;13.65;53.49
50632;BME280;49583;45.590;-122.498;2023-02-13T00:33:23;101642.06;;;13.62;53.38
50632;BME280;49583;45.590;-122.498;2023-02-13T00:35:36;101629.58;;;13.57;53.23
50632;BME280;49583;45.590;-122.498;2023-02-13T00:37:49;101626.64;;;13.52;53.33
50632;BME280;49583;45.590;-122.498;2023-02-13T00:40:07;101625.14;;;13.45;53.24
50632;BME280;49583;45.590;-122.498;2023-02-13T00:42:21;101618.71;;;13.39;53.15
50632;BME280;49583;45.590;-122.498;2023-02-13T00:44:37;101615.95;;;13.33;53.34
50632;BME280;49583;45.590;-122.498;2023-02-13T00:46:51;101613.11;;;13.27;53.47
50632;BME280;49583;45.590;-122.498;2023-02-13T00:49:05;101611.88;;;13.21;53.50
50632;BME280;49583;45.590;-122.498;2023-02-13T00:51:19;101616.02;;;13.14;53.39
50632;BME280;49583;45.590;-122.498;2023-02-13T00:53:33;101621.55;;;13.07;53.68
50632;BME280;49583;45.590;-122.498;2023-02-13T00:55:46;101616.58;;;13.01;53.87
50632;BME280;49583;45.590;-122.498;2023-02-13T00:58:01;101609.75;;;12.92;53.68
50632;BME280;49583;45.590;-122.498;2023-02-13T01:00:17;101605.69;;;12.84;53.98
50632;BME280;49583;45.590;-122.498;2023-02-13T01:02:31;101603.16;;;12.75;53.86
50632;BME280;49583;45.590;-122.498;2023-02-13T01:04:46;101598.83;;;12.65;53.98
50632;BME280;49583;45.590;-122.498;2023-02-13T01:07:00;101592.09;;;12.57;54.09
50632;BME280;49583;45.590;-122.498;2023-02-13T01:09:13;101593.05;;;12.49;54.27
50632;BME280;49583;45.590;-122.498;2023-02-13T01:11:27;101587.45;;;12.40;54.29
50632;BME280;49583;45.590;-122.498;2023-02-13T01:13:43;101584.45;;;12.31;54.33
50632;BME280;49583;45.590;-122.498;2023-02-13T01:15:57;101577.88;;;12.24;54.40
50632;BME280;49583;45.590;-122.498;2023-02-13T01:18:11;101578.69;;;12.17;54.65
50632;BME280;49583;45.590;-122.498;2023-02-13T01:20:25;101575.44;;;12.11;54.78
50632;BME280;49583;45.590;-122.498;2023-02-13T01:22:39;101566.90;;;12.03;54.85
50632;BME280;49583;45.590;-122.498;2023-02-13T01:24:53;101564.59;;;11.96;54.94
50632;BME280;49583;45.590;-122.498;2023-02-13T01:27:10;101560.52;;;11.94;55.32
50632;BME280;49583;45.590;-122.498;2023-02-13T01:29:25;101557.18;;;11.89;55.10
50632;BME280;49583;45.590;-122.498;2023-02-13T01:31:39;101549.94;;;11.83;55.12
50632;BME280;49583;45.590;-122.498;2023-02-13T01:33:54;101543.80;;;11.77;55.07
50632;BME280;49583;45.590;-122.498;2023-02-13T01:36:13;101536.16;;;11.70;55.29
50632;BME280;49583;45.590;-122.498;2023-02-13T01:38:27;101538.92;;;11.63;55.21
50632;BME280;49583;45.590;-122.498;2023-02-13T01:40:47;101540.83;;;11.58;55.36
50632;BME280;49583;45.590;-122.498;2023-02-13T01:43:07;101540.80;;;11.52;55.49
50632;BME280;49583;45.590;-122.498;2023-02-13T01:45:34;101534.52;;;11.44;55.55
50632;BME280;49583;45.590;-122.498;2023-02-13T01:47:53;101527.42;;;11.36;55.64
50632;BME280;49583;45.590;-122.498;2023-02-13T01:50:12;101522.50;;;11.29;55.66
50632;BME280;49583;45.590;-122.498;2023-02-13T01:52:26;101520.88;;;11.22;55.56
50632;BME280;49583;45.590;-122.498;2023-02-13T01:54:41;101523.90;;;11.16;55.91
50632;BME280;49583;45.590;-122.498;2023-02-13T01:56:57;101528.09;;;11.10;55.96
50632;BME280;49583;45.590;-122.498;2023-02-13T01:59:14;101531.62;;;11.05;55.98
50632;BME280;49583;45.590;-122.498;2023-02-13T02:01:30;101530.30;;;10.99;56.09
50632;BME280;49583;45.590;-122.498;2023-02-13T02:03:45;101523.83;;;10.93;56.03
50632;BME280;49583;45.590;-122.498;2023-02-13T02:06:01;101522.80;;;10.88;56.22
50632;BME280;49583;45.590;-122.498;2023-02-13T02:08:17;101519.87;;;10.82;56.34
50632;BME280;49583;45.590;-122.498;2023-02-13T02:10:33;101521.98;;;10.77;56.40
50632;BME280;49583;45.590;-122.498;2023-02-13T02:12:49;101525.48;;;10.72;56.55
50632;BME280;49583;45.590;-122.498;2023-02-13T02:15:07;101520.69;;;10.67;56.30
50632;BME280;49583;45.590;-122.498;2023-02-13T02:17:21;101519.32;;;10.64;56.60
50632;BME280;49583;45.590;-122.498;2023-02-13T02:19:40;101514.58;;;10.60;56.76
50632;BME280;49583;45.590;-122.498;2023-02-13T02:22:15;101516.21;;;10.57;56.85
50632;BME280;49583;45.590;-122.498;2023-02-13T02:24:50;101512.98;;;10.54;56.81
50632;BME280;49583;45.590;-122.498;2023-02-13T02:27:27;101516.23;;;10.51;56.92
50632;BME280;49583;45.590;-122.498;2023-02-13T02:30:08;101521.54;;;10.49;57.05
50632;BME280;49583;45.590;-122.498;2023-02-13T02:32:32;101521.52;;;10.46;57.14
50632;BME280;49583;45.590;-122.498;2023-02-13T02:34:58;101523.98;;;10.42;57.05
50632;BME280;49583;45.590;-122.498;2023-02-13T02:37:23;101526.41;;;10.38;57.16
50632;BME280;49583;45.590;-122.498;2023-02-13T02:39:49;101520.89;;;10.33;57.09
50632;BME280;49583;45.590;-122.498;2023-02-13T02:42:12;101516.64;;;10.27;57.19
50632;BME280;49583;45.590;-122.498;2023-02-13T02:44:37;101525.13;;;10.24;57.34
50632;BME280;49583;45.590;-122.498;2023-02-13T02:47:01;101531.02;;;10.20;57.44
50632;BME280;49583;45.590;-122.498;2023-02-13T02:49:38;101536.53;;;10.14;57.24
50632;BME280;49583;45.590;-122.498;2023-02-13T02:52:17;101538.18;;;10.08;57.54
50632;BME280;49583;45.590;-122.498;2023-02-13T02:54:37;101540.89;;;10.01;57.58
50632;BME280;49583;45.590;-122.498;2023-02-13T02:57:17;101540.43;;;9.91;57.59
50632;BME280;49583;45.590;-122.498;2023-02-13T02:59:39;101539.47;;;9.82;57.49
50632;BME280;49583;45.590;-122.498;2023-02-13T03:02:11;101538.30;;;9.76;57.58
50632;BME280;49583;45.590;-122.498;2023-02-13T03:04:43;101535.39;;;9.69;57.80
50632;BME280;49583;45.590;-122.498;2023-02-13T03:07:18;101530.89;;;9.64;57.88
50632;BME280;49583;45.590;-122.498;2023-02-13T03:09:34;101531.31;;;9.60;58.31
50632;BME280;49583;45.590;-122.498;2023-02-13T03:12:05;101528.09;;;9.56;58.31
50632;BME280;49583;45.590;-122.498;2023-02-13T03:14:37;101527.06;;;9.52;58.21
50632;BME280;49583;45.590;-122.498;2023-02-13T03:16:50;101521.95;;;9.49;58.35
50632;BME280;49583;45.590;-122.498;2023-02-13T03:19:30;101516.71;;;9.45;58.65
50632;BME280;49583;45.590;-122.498;2023-02-13T03:22:11;101509.79;;;9.40;58.64
50632;BME280;49583;45.590;-122.498;2023-02-13T03:24:37;101509.02;;;9.34;58.56
50632;BME280;49583;45.590;-122.498;2023-02-13T03:27:01;101506.31;;;9.29;59.00
50632;BME280;49583;45.590;-122.498;2023-02-13T03:29:30;101514.19;;;9.24;59.10
50632;BME280;49583;45.590;-122.498;2023-02-13T03:32:08;101522.66;;;9.20;59.38
50632;BME280;49583;45.590;-122.498;2023-02-13T03:34:27;101527.31;;;9.17;59.47
50632;BME280;49583;45.590;-122.498;2023-02-13T03:37:04;101535.26;;;9.14;59.74
50632;BME280;49583;45.590;-122.498;2023-02-13T03:39:45;101532.36;;;9.10;59.76
50632;BME280;49583;45.590;-122.498;2023-02-13T03:42:03;101529.69;;;9.04;59.48
50632;BME280;49583;45.590;-122.498;2023-02-13T03:44:22;101530.20;;;9.00;59.88
50632;BME280;49583;45.590;-122.498;2023-02-13T03:46:39;101533.38;;;8.96;59.55
50632;BME280;49583;45.590;-122.498;2023-02-13T03:48:55;101530.35;;;8.88;59.90
50632;BME280;49583;45.590;-122.498;2023-02-13T03:51:28;101527.35;;;8.82;59.94
50632;BME280;49583;45.590;-122.498;2023-02-13T03:53:45;101524.08;;;8.77;60.07
50632;BME280;49583;45.590;-122.498;2023-02-13T03:56:00;101527.90;;;8.74;60.24
50632;BME280;49583;45.590;-122.498;2023-02-13T03:58:33;101522.89;;;8.70;60.27
50632;BME280;49583;45.590;-122.498;2023-02-13T04:01:06;101517.54;;;8.66;60.37
50632;BME280;49583;45.590;-122.498;2023-02-13T04:03:25;101514.73;;;8.63;60.51
50632;BME280;49583;45.590;-122.498;2023-02-13T04:05:43;101521.69;;;8.58;60.84
50632;BME280;49583;45.590;-122.498;2023-02-13T04:07:57;101518.09;;;8.55;60.54
50632;BME280;49583;45.590;-122.498;2023-02-13T04:10:12;101516.27;;;8.51;60.81
50632;BME280;49583;45.590;-122.498;2023-02-13T04:12:32;101519.13;;;8.50;60.94
50632;BME280;49583;45.590;-122.498;2023-02-13T04:14:51;101515.77;;;8.46;61.16
50632;BME280;49583;45.590;-122.498;2023-02-13T04:17:08;101526.70;;;8.45;61.24
50632;BME280;49583;45.590;-122.498;2023-02-13T04:19:26;101531.95;;;8.42;61.52
50632;BME280;49583;45.590;-122.498;2023-02-13T04:21:40;101535.30;;;8.43;61.52
50632;BME280;49583;45.590;-122.498;2023-02-13T04:23:55;101533.20;;;8.43;61.50
50632;BME280;49583;45.590;-122.498;2023-02-13T04:26:12;101526.34;;;8.43;61.63
50632;BME280;49583;45.590;-122.498;2023-02-13T04:28:29;101527.88;;;8.43;61.67
50632;BME280;49583;45.590;-122.498;2023-02-13T04:30:43;101527.04;;;8.43;61.71
50632;BME280;49583;45.590;-122.498;2023-02-13T04:32:58;101530.06;;;8.43;61.66
50632;BME280;49583;45.590;-122.498;2023-02-13T04:35:11;101530.13;;;8.42;61.95
50632;BME280;49583;45.590;-122.498;2023-02-13T04:37:25;101533.19;;;8.43;61.94
50632;BME280;49583;45.590;-122.498;2023-02-13T04:39:38;101535.77;;;8.42;62.12
50632;BME280;49583;45.590;-122.498;2023-02-13T04:41:51;101538.45;;;8.43;62.13
50632;BME280;49583;45.590;-122.498;2023-02-13T04:44:05;101540.30;;;8.43;62.14
50632;BME280;49583;45.590;-122.498;2023-02-13T04:46:20;101535.77;;;8.42;62.02
50632;BME280;49583;45.590;-122.498;2023-02-13T04:48:35;101544.95;;;8.43;62.33
50632;BME280;49583;45.590;-122.498;2023-02-13T04:50:47;101543.95;;;8.45;62.51
50632;BME280;49583;45.590;-122.498;2023-02-13T04:53:01;101539.16;;;8.46;62.35
50632;BME280;49583;45.590;-122.498;2023-02-13T04:55:16;101540.83;;;8.45;62.42
50632;BME280;49583;45.590;-122.498;2023-02-13T04:57:29;101549.27;;;8.45;62.69
50632;BME280;49583;45.590;-122.498;2023-02-13T04:59:43;101551.11;;;8.47;62.57
50632;BME280;49583;45.590;-122.498;2023-02-13T05:01:56;101556.26;;;8.48;62.89
50632;BME280;49583;45.590;-122.498;2023-02-13T05:04:10;101546.40;;;8.49;62.79
50632;BME280;49583;45.590;-122.498;2023-02-13T05:06:25;101541.73;;;8.48;62.99
50632;BME280;49583;45.590;-122.498;2023-02-13T05:08:39;101538.87;;;8.45;62.64
50632;BME280;49583;45.590;-122.498;2023-02-13T05:10:51;101534.25;;;8.44;63.09
50632;BME280;49583;45.590;-122.498;2023-02-13T05:13:04;101527.36;;;8.40;62.86
50632;BME280;49583;45.590;-122.498;2023-02-13T05:15:18;101518.42;;;8.37;63.21
50632;BME280;49583;45.590;-122.498;2023-02-13T05:17:31;101518.05;;;8.38;63.41
50632;BME280;49583;45.590;-122.498;2023-02-13T05:19:44;101508.16;;;8.36;63.54
50632;BME280;49583;45.590;-122.498;2023-02-13T05:21:57;101501.55;;;8.32;63.38
50632;BME280;49583;45.590;-122.498;2023-02-13T05:24:28;101490.12;;;8.26;63.65
50632;BME280;49583;45.590;-122.498;2023-02-13T05:26:41;101488.10;;;8.20;64.06
50632;BME280;49583;45.590;-122.498;2023-02-13T05:28:53;101478.31;;;8.14;63.81
50632;BME280;49583;45.590;-122.498;2023-02-13T05:31:25;101471.55;;;8.07;64.24
50632;BME280;49583;45.590;-122.498;2023-02-13T05:33:39;101473.14;;;8.02;64.50
50632;BME280;49583;45.590;-122.498;2023-02-13T05:35:52;101475.48;;;7.97;64.75
50632;BME280;49583;45.590;-122.498;2023-02-13T05:38:06;101479.25;;;7.96;64.91
50632;BME280;49583;45.590;-122.498;2023-02-13T05:40:19;101481.27;;;7.96;64.96
50632;BME280;49583;45.590;-122.498;2023-02-13T05:42:33;101482.67;;;7.94;65.14
50632;BME280;49583;45.590;-122.498;2023-02-13T05:44:47;101486.52;;;7.91;65.24
50632;BME280;49583;45.590;-122.498;2023-02-13T05:46:59;101488.27;;;7.89;65.45
50632;BME280;49583;45.590;-122.498;2023-02-13T05:49:16;101476.77;;;7.88;65.59
50632;BME280;49583;45.590;-122.498;2023-02-13T05:51:30;101472.13;;;7.88;65.77
50632;BME280;49583;45.590;-122.498;2023-02-13T05:53:43;101470.81;;;7.89;65.87
50632;BME280;49583;45.590;-122.498;2023-02-13T05:55:57;101476.62;;;7.88;65.92
50632;BME280;49583;45.590;-122.498;2023-02-13T05:58:10;101474.27;;;7.88;66.07
50632;BME280;49583;45.590;-122.498;2023-02-13T06:00:24;101477.38;;;7.87;66.18
50632;BME280;49583;45.590;-122.498;2023-02-13T06:02:36;101469.90;;;7.84;66.39
50632;BME280;49583;45.590;-122.498;2023-02-13T06:04:49;101467.53;;;7.78;66.39
50632;BME280;49583;45.590;-122.498;2023-02-13T06:07:03;101467.78;;;7.77;66.44
50632;BME280;49583;45.590;-122.498;2023-02-13T06:09:17;101470.29;;;7.77;66.76
50632;BME280;49583;45.590;-122.498;2023-02-13T06:11:32;101470.13;;;7.79;66.73
50632;BME280;49583;45.590;-122.498;2023-02-13T06:13:46;101475.17;;;7.80;66.79
50632;BME280;49583;45.590;-122.498;2023-02-13T06:16:01;101465.71;;;7.79;67.03
50632;BME280;49583;45.590;-122.498;2023-02-13T06:18:15;101454.48;;;7.79;67.11
50632;BME280;49583;45.590;-122.498;2023-02-13T06:20:28;101457.80;;;7.77;66.94
50632;BME280;49583;45.590;-122.498;2023-02-13T06:22:41;101452.09;;;7.77;67.23
50632;BME280;49583;45.590;-122.498;2023-02-13T06:24:54;101450.02;;;7.77;67.13
50632;BME280;49583;45.590;-122.498;2023-02-13T06:27:08;101447.09;;;7.76;67.27
50632;BME280;49583;45.590;-122.498;2023-02-13T06:29:24;101448.05;;;7.77;67.30
50632;BME280;49583;45.590;-122.498;2023-02-13T06:31:37;101452.65;;;7.78;67.28
50632;BME280;49583;45.590;-122.498;2023-02-13T06:33:51;101451.21;;;7.79;67.33
50632;BME280;49583;45.590;-122.498;2023-02-13T06:36:06;101449.39;;;7.80;67.43
50632;BME280;49583;45.590;-122.498;2023-02-13T06:38:20;101443.45;;;7.81;67.48
50632;BME280;49583;45.590;-122.498;2023-02-13T06:40:34;101445.02;;;7.82;67.60
50632;BME280;49583;45.590;-122.498;2023-02-13T06:42:50;101443.50;;;7.81;67.64
50632;BME280;49583;45.590;-122.498;2023-02-13T06:45:05;101441.88;;;7.81;67.78
50632;BME280;49583;45.590;-122.498;2023-02-13T06:47:20;101443.80;;;7.81;67.74
50632;BME280;49583;45.590;-122.498;2023-02-13T06:49:34;101436.67;;;7.80;67.62
50632;BME280;49583;45.590;-122.498;2023-02-13T06:51:48;101437.61;;;7.81;67.80
50632;BME280;49583;45.590;-122.498;2023-02-13T06:54:01;101425.23;;;7.80;67.74
50632;BME280;49583;45.590;-122.498;2023-02-13T06:56:14;101432.48;;;7.78;67.87
50632;BME280;49583;45.590;-122.498;2023-02-13T06:58:27;101437.40;;;7.77;67.88
50632;BME280;49583;45.590;-122.498;2023-02-13T07:00:40;101430.86;;;7.77;67.87
50632;BME280;49583;45.590;-122.498;2023-02-13T07:02:53;101439.54;;;7.79;67.80
50632;BME280;49583;45.590;-122.498;2023-02-13T07:05:07;101445.65;;;7.82;67.78
50632;BME280;49583;45.590;-122.498;2023-02-13T07:07:21;101435.09;;;7.85;67.97
50632;BME280;49583;45.590;-122.498;2023-02-13T07:09:35;101432.30;;;7.85;67.98
50632;BME280;49583;45.590;-122.498;2023-02-13T07:11:50;101425.63;;;7.84;67.90
50632;BME280;49583;45.590;-122.498;2023-02-13T07:14:02;101431.25;;;7.82;67.81
50632;BME280;49583;45.590;-122.498;2023-02-13T07:16:16;101431.85;;;7.82;67.93
50632;BME280;49583;45.590;-122.498;2023-02-13T07:18:30;101427.10;;;7.84;68.00
50632;BME280;49583;45.590;-122.498;2023-02-13T07:20:47;101422.10;;;7.85;67.91
50632;BME280;49583;45.590;-122.498;2023-02-13T07:23:03;101414.17;;;7.84;67.98
50632;BME280;49583;45.590;-122.498;2023-02-13T07:25:17;101403.65;;;7.82;68.20
50632;BME280;49583;45.590;-122.498;2023-02-13T07:27:32;101401.88;;;7.80;68.04
50632;BME280;49583;45.590;-122.498;2023-02-13T07:29:45;101409.58;;;7.80;68.30
50632;BME280;49583;45.590;-122.498;2023-02-13T07:31:58;101414.06;;;7.79;68.20
50632;BME280;49583;45.590;-122.498;2023-02-13T07:34:12;101411.79;;;7.79;68.28
50632;BME280;49583;45.590;-122.498;2023-02-13T07:36:25;101401.88;;;7.79;68.56
50632;BME280;49583;45.590;-122.498;2023-02-13T07:38:39;101397.51;;;7.77;68.47
50632;BME280;49583;45.590;-122.498;2023-02-13T07:40:52;101387.83;;;7.74;68.52
50632;BME280;49583;45.590;-122.498;2023-02-13T07:43:06;101371.86;;;7.72;68.73
50632;BME280;49583;45.590;-122.498;2023-02-13T07:45:20;101373.80;;;7.72;68.69
50632;BME280;49583;45.590;-122.498;2023-02-13T07:47:34;101375.71;;;7.70;68.81
50632;BME280;49583;45.590;-122.498;2023-02-13T07:49:49;101376.33;;;7.66;68.80
50632;BME280;49583;45.590;-122.498;2023-02-13T07:52:02;101368.05;;;7.62;68.81
50632;BME280;49583;45.590;-122.498;2023-02-13T07:54:15;101366.52;;;7.59;68.98
50632;BME280;49583;45.590;-122.498;2023-02-13T07:56:28;101367.43;;;7.57;69.13
50632;BME280;49583;45.590;-122.498;2023-02-13T07:58:40;101366.63;;;7.56;69.18
50632;BME280;49583;45.590;-122.498;2023-02-13T08:00:55;101367.94;;;7.56;69.19
50632;BME280;49583;45.590;-122.498;2023-02-13T08:03:08;101363.52;;;7.56;69.29
50632;BME280;49583;45.590;-122.498;2023-02-13T08:05:21;101363.86;;;7.55;69.28
50632;BME280;49583;45.590;-122.498;2023-02-13T08:07:33;101361.38;;;7.53;69.21
50632;BME280;49583;45.590;-122.498;2023-02-13T08:09:47;101350.80;;;7.50;69.27
50632;BME280;49583;45.590;-122.498;2023-02-13T08:12:16;101347.36;;;7.49;69.31
50632;BME280;49583;45.590;-122.498;2023-02-13T08:14:29;101350.60;;;7.50;69.33
50632;BME280;49583;45.590;-122.498;2023-02-13T08:16:42;101361.79;;;7.51;69.45
50632;BME280;49583;45.590;-122.498;2023-02-13T08:18:54;101350.23;;;7.52;69.18
50632;BME280;49583;45.590;-122.498;2023-02-13T08:21:07;101344.14;;;7.55;68.98
50632;BME280;49583;45.590;-122.498;2023-02-13T08:23:20;101341.52;;;7.57;69.10
50632;BME280;49583;45.590;-122.498;2023-02-13T08:25:33;101325.79;;;7.61;68.96
50632;BME280;49583;45.590;-122.498;2023-02-13T08:27:49;101328.45;;;7.65;69.05
50632;BME280;49583;45.590;-122.498;2023-02-13T08:30:04;101323.05;;;7.68;69.06
50632;BME280;49583;45.590;-122.498;2023-02-13T08:32:18;101319.88;;;7.72;69.03
50632;BME280;49583;45.590;-122.498;2023-02-13T08:34:31;101318.19;;;7.74;68.81
50632;BME280;49583;45.590;-122.498;2023-02-13T08:36:44;101311.73;;;7.75;68.89
50632;BME280;49583;45.590;-122.498;2023-02-13T08:38:58;101303.11;;;7.77;68.64
50632;BME280;49583;45.590;-122.498;2023-02-13T08:41:11;101302.58;;;7.79;68.81
50632;BME280;49583;45.590;-122.498;2023-02-13T08:43:29;101305.75;;;7.80;68.67
50632;BME280;49583;45.590;-122.498;2023-02-13T08:45:43;101301.77;;;7.80;68.37
50632;BME280;49583;45.590;-122.498;2023-02-13T08:48:00;101296.32;;;7.80;68.55
50632;BME280;49583;45.590;-122.498;2023-02-13T08:50:14;101298.52;;;7.81;68.37
50632;BME280;49583;45.590;-122.498;2023-02-13T08:52:27;101298.91;;;7.79;68.24
50632;BME280;49583;45.590;-122.498;2023-02-13T08:54:41;101295.29;;;7.81;68.46
50632;BME280;49583;45.590;-122.498;2023-02-13T08:56:54;101289.96;;;7.83;68.28
50632;BME280;49583;45.590;-122.498;2023-02-13T08:59:07;101290.55;;;7.86;68.12
50632;BME280;49583;45.590;-122.498;2023-02-13T09:01:20;101290.92;;;7.87;68.16
50632;BME280;49583;45.590;-122.498;2023-02-13T09:03:35;101289.75;;;7.91;68.02
50632;BME280;49583;45.590;-122.498;2023-02-13T09:05:47;101288.02;;;7.92;67.99
50632;BME280;49583;45.590;-122.498;2023-02-13T09:08:03;101279.10;;;7.93;67.89
50632;BME280;49583;45.590;-122.498;2023-02-13T09:10:17;101270.50;;;7.94;67.89
50632;BME280;49583;45.590;-122.498;2023-02-13T09:12:30;101265.30;;;7.95;67.78
50632;BME280;49583;45.590;-122.498;2023-02-13T09:14:43;101265.66;;;7.96;67.57
50632;BME280;49583;45.590;-122.498;2023-02-13T09:16:58;101269.48;;;7.98;67.70
50632;BME280;49583;45.590;-122.498;2023-02-13T09:19:12;101270.60;;;8.01;67.79
50632;BME280;49583;45.590;-122.498;2023-02-13T09:21:26;101270.09;;;8.03;67.58
50632;BME280;49583;45.590;-122.498;2023-02-13T09:23:40;101270.83;;;8.04;67.44
50632;BME280;49583;45.590;-122.498;2023-02-13T09:25:53;101268.10;;;8.04;67.47
50632;BME280;49583;45.590;-122.498;2023-02-13T09:28:07;101259.08;;;8.03;67.70
50632;BME280;49583;45.590;-122.498;2023-02-13T09:30:22;101258.82;;;8.04;67.48
50632;BME280;49583;45.590;-122.498;2023-02-13T09:32:34;101249.89;;;8.05;67.45
50632;BME280;49583;45.590;-122.498;2023-02-13T09:34:47;101239.77;;;8.05;67.43
50632;BME280;49583;45.590;-122.498;2023-02-13T09:37:01;101234.88;;;8.03;67.40
50632;BME280;49583;45.590;-122.498;2023-02-13T09:39:15;101231.44;;;8.05;67.49
50632;BME280;49583;45.590;-122.498;2023-02-13T09:41:30;101233.61;;;8.03;67.26
50632;BME280;49583;45.590;-122.498;2023-02-13T09:43:47;101235.66;;;8.00;67.21
50632;BME280;49583;45.590;-122.498;2023-02-13T09:46:03;101236.72;;;7.99;67.10
50632;BME280;49583;45.590;-122.498;2023-02-13T09:48:26;101243.98;;;7.99;67.38
50632;BME280;49583;45.590;-122.498;2023-02-13T09:50:41;101240.54;;;8.03;67.36
50632;BME280;49583;45.590;-122.498;2023-02-13T09:52:55;101234.20;;;8.04;67.26
50632;BME280;49583;45.590;-122.498;2023-02-13T09:55:17;101235.29;;;8.04;67.37
50632;BME280;49583;45.590;-122.498;2023-02-13T09:57:33;101239.31;;;8.07;67.33
50632;BME280;49583;45.590;-122.498;2023-02-13T09:59:53;101242.10;;;8.09;67.10
50632;BME280;49583;45.590;-122.498;2023-02-13T10:02:19;101243.06;;;8.08;67.09
50632;BME280;49583;45.590;-122.498;2023-02-13T10:04:40;101250.64;;;8.08;67.16
50632;BME280;49583;45.590;-122.498;2023-02-13T10:07:12;101248.61;;;8.10;67.16
50632;BME280;49583;45.590;-122.498;2023-02-13T10:09:35;101247.08;;;8.10;67.06
50632;BME280;49583;45.590;-122.498;2023-02-13T10:14:29;101255.35;;;8.09;67.12
50632;BME280;49583;45.590;-122.498;2023-02-13T10:16:46;101256.58;;;8.07;66.98
50632;BME280;49583;45.590;-122.498;2023-02-13T10:19:04;101252.83;;;8.04;66.98
50632;BME280;49583;45.590;-122.498;2023-02-13T10:21:27;101247.82;;;8.03;66.98
50632;BME280;49583;45.590;-122.498;2023-02-13T10:23:45;101248.49;;;8.03;66.91
50632;BME280;49583;45.590;-122.498;2023-02-13T10:26:02;101243.52;;;8.03;66.93
50632;BME280;49583;45.590;-122.498;2023-02-13T10:28:20;101239.45;;;8.05;67.18
50632;BME280;49583;45.590;-122.498;2023-02-13T10:30:47;101240.31;;;8.07;67.31
50632;BME280;49583;45.590;-122.498;2023-02-13T10:33:06;101236.05;;;8.07;67.49
50632;BME280;49583;45.590;-122.498;2023-02-13T10:35:33;101238.38;;;8.11;67.62
50632;BME280;49583;45.590;-122.498;2023-02-13T10:37:47;101237.73;;;8.12;67.60
50632;BME280;49583;45.590;-122.498;2023-02-13T10:40:04;101230.33;;;8.13;67.46
50632;BME280;49583;45.590;-122.498;2023-02-13T10:42:27;101233.37;;;8.13;67.51
50632;BME280;49583;45.590;-122.498;2023-02-13T10:44:47;101236.50;;;8.13;67.51
50632;BME280;49583;45.590;-122.498;2023-02-13T10:47:12;101241.47;;;8.13;67.81
50632;BME280;49583;45.590;-122.498;2023-02-13T10:49:45;101240.98;;;8.10;67.71
50632;BME280;49583;45.590;-122.498;2023-02-13T10:52:12;101238.41;;;8.10;67.93
50632;BME280;49583;45.590;-122.498;2023-02-13T10:54:53;101232.80;;;8.08;67.95
50632;BME280;49583;45.590;-122.498;2023-02-13T10:57:14;101232.96;;;8.06;68.17
50632;BME280;49583;45.590;-122.498;2023-02-13T10:59:56;101233.63;;;8.06;68.16
50632;BME280;49583;45.590;-122.498;2023-02-13T11:02:22;101232.55;;;8.06;68.24
50632;BME280;49583;45.590;-122.498;2023-02-13T11:04:36;101229.82;;;8.06;68.44
50632;BME280;49583;45.590;-122.498;2023-02-13T11:06:56;101226.70;;;8.05;68.55
50632;BME280;49583;45.590;-122.498;2023-02-13T11:09:10;101228.14;;;8.04;68.77
50632;BME280;49583;45.590;-122.498;2023-02-13T11:11:35;101224.80;;;8.03;68.94
50632;BME280;49583;45.590;-122.498;2023-02-13T11:14:10;101235.14;;;8.01;69.08
50632;BME280;49583;45.590;-122.498;2023-02-13T11:16:23;101230.61;;;7.99;69.37
50632;BME280;49583;45.590;-122.498;2023-02-13T11:18:38;101230.69;;;7.96;69.56
50632;BME280;49583;45.590;-122.498;2023-02-13T11:21:00;101227.19;;;7.95;69.77
50632;BME280;49583;45.590;-122.498;2023-02-13T11:23:34;101226.20;;;7.92;69.80
50632;BME280;49583;45.590;-122.498;2023-02-13T11:25:58;101221.53;;;7.89;69.94
50632;BME280;49583;45.590;-122.498;2023-02-13T11:28:14;101220.50;;;7.89;70.09
50632;BME280;49583;45.590;-122.498;2023-02-13T11:30:37;101222.59;;;7.89;70.23
50632;BME280;49583;45.590;-122.498;2023-02-13T11:33:03;101224.98;;;7.88;70.54
50632;BME280;49583;45.590;-122.498;2023-02-13T11:35:32;101221.23;;;7.88;70.57
50632;BME280;49583;45.590;-122.498;2023-02-13T11:37:45;101218.92;;;7.87;70.70
50632;BME280;49583;45.590;-122.498;2023-02-13T11:40:00;101212.77;;;7.85;70.67
50632;BME280;49583;45.590;-122.498;2023-02-13T11:42:35;101215.83;;;7.82;70.88